sensor_id;sensor_type;location;lat;lon;timestamp;temperature;humidity
6098;DHT22;3077;50.922;6.584;2022-07-29T00:00:42;21.00;87.00
6098;DHT22;3077;50.922;6.584;2022-07-29T00:03:12;21.00;87.60
6098;DHT22;3077;50.922;6.584;2022-07-29T00:05:41;21.00;88.40
6098;DHT22;3077;50.922;6.584;2022-07-29T00:08:08;21.00;88.60
6098;DHT22;3077;50.922;6.584;2022-07-29T00:10:34;21.00;89.80
6098;DHT22;3077;50.922;6.584;2022-07-29T00:13:00;21.00;90.00
6098;DHT22;3077;50.922;6.584;2022-07-29T00:15:26;20.90;90.20
6098;DHT22;3077;50.922;6.584;2022-07-29T00:17:52;20.90;90.40
6098;DHT22;3077;50.922;6.584;2022-07-29T00:20:18;20.90;90.60
6098;DHT22;3077;50.922;6.584;2022-07-29T00:22:43;20.80;90.70
6098;DHT22;3077;50.922;6.584;2022-07-29T00:25:09;20.80;90.90
6098;DHT22;3077;50.922;6.584;2022-07-29T00:27:36;20.70;91.20
6098;DHT22;3077;50.922;6.584;2022-07-29T00:30:03;20.70;91.80
6098;DHT22;3077;50.922;6.584;2022-07-29T00:32:28;20.60;92.20
6098;DHT22;3077;50.922;6.584;2022-07-29T00:34:54;20.60;92.60
6098;DHT22;3077;50.922;6.584;2022-07-29T00:37:38;20.60;92.90
6098;DHT22;3077;50.922;6.584;2022-07-29T00:40:04;20.60;93.40
6098;DHT22;3077;50.922;6.584;2022-07-29T00:42:30;20.50;94.10
6098;DHT22;3077;50.922;6.584;2022-07-29T00:44:55;20.60;94.50
6098;DHT22;3077;50.922;6.584;2022-07-29T00:47:21;20.50;94.60
6098;DHT22;3077;50.922;6.584;2022-07-29T00:49:47;20.50;94.80
6098;DHT22;3077;50.922;6.584;2022-07-29T00:52:13;20.50;95.00
6098;DHT22;3077;50.922;6.584;2022-07-29T00:54:39;20.40;95.40
6098;DHT22;3077;50.922;6.584;2022-07-29T00:57:06;20.40;95.80
6098;DHT22;3077;50.922;6.584;2022-07-29T00:59:33;20.40;95.90
6098;DHT22;3077;50.922;6.584;2022-07-29T01:01:59;20.40;96.00
6098;DHT22;3077;50.922;6.584;2022-07-29T01:04:24;20.40;96.40
6098;DHT22;3077;50.922;6.584;2022-07-29T01:06:50;20.40;96.40
6098;DHT22;3077;50.922;6.584;2022-07-29T01:09:18;20.40;96.90
6098;DHT22;3077;50.922;6.584;2022-07-29T01:11:46;20.40;97.30
6098;DHT22;3077;50.922;6.584;2022-07-29T01:14:13;20.40;97.60
6098;DHT22;3077;50.922;6.584;2022-07-29T01:21:59;20.20;99.20
6098;DHT22;3077;50.922;6.584;2022-07-29T01:24:45;20.20;99.80
6098;DHT22;3077;50.922;6.584;2022-07-29T01:27:44;20.20;99.90
6098;DHT22;3077;50.922;6.584;2022-07-29T01:30:13;20.20;99.90
6098;DHT22;3077;50.922;6.584;2022-07-29T01:32:39;20.10;99.90
6098;DHT22;3077;50.922;6.584;2022-07-29T01:37:48;20.00;99.90
6098;DHT22;3077;50.922;6.584;2022-07-29T01:40:29;19.90;99.90
6098;DHT22;3077;50.922;6.584;2022-07-29T01:42:57;19.90;99.90
6098;DHT22;3077;50.922;6.584;2022-07-29T01:45:46;19.90;99.90
6098;DHT22;3077;50.922;6.584;2022-07-29T01:48:27;19.90;99.90
6098;DHT22;3077;50.922;6.584;2022-07-29T01:51:02;19.90;99.90
6098;DHT22;3077;50.922;6.584;2022-07-29T01:53:42;19.90;99.90
6098;DHT22;3077;50.922;6.584;2022-07-29T01:56:10;19.80;99.90
6098;DHT22;3077;50.922;6.584;2022-07-29T01:58:39;19.60;99.90
6098;DHT22;3077;50.922;6.584;2022-07-29T02:01:08;19.40;99.90
6098;DHT22;3077;50.922;6.584;2022-07-29T02:03:35;19.30;99.90
6098;DHT22;3077;50.922;6.584;2022-07-29T02:06:02;19.20;99.90
6098;DHT22;3077;50.922;6.584;2022-07-29T02:08:30;19.10;99.90
6098;DHT22;3077;50.922;6.584;2022-07-29T02:10:57;19.10;99.90
6098;DHT22;3077;50.922;6.584;2022-07-29T02:13:26;19.10;99.90
6098;DHT22;3077;50.922;6.584;2022-07-29T02:15:54;19.10;99.90
6098;DHT22;3077;50.922;6.584;2022-07-29T02:18:23;19.00;99.90
6098;DHT22;3077;50.922;6.584;2022-07-29T02:20:52;19.00;99.90
6098;DHT22;3077;50.922;6.584;2022-07-29T02:23:20;18.90;99.90
6098;DHT22;3077;50.922;6.584;2022-07-29T02:25:49;18.80;99.90
6098;DHT22;3077;50.922;6.584;2022-07-29T02:28:17;18.70;99.90
6098;DHT22;3077;50.922;6.584;2022-07-29T02:30:45;18.70;99.90
6098;DHT22;3077;50.922;6.584;2022-07-29T02:33:14;18.70;99.90
6098;DHT22;3077;50.922;6.584;2022-07-29T02:35:41;18.60;99.90
6098;DHT22;3077;50.922;6.584;2022-07-29T02:38:10;18.60;99.90
6098;DHT22;3077;50.922;6.584;2022-07-29T02:40:57;18.60;99.90
6098;DHT22;3077;50.922;6.584;2022-07-29T02:43:25;18.60;99.90
6098;DHT22;3077;50.922;6.584;2022-07-29T02:45:53;18.60;99.90
6098;DHT22;3077;50.922;6.584;2022-07-29T02:48:25;18.60;99.90
6098;DHT22;3077;50.922;6.584;2022-07-29T02:50:58;18.60;99.90
6098;DHT22;3077;50.922;6.584;2022-07-29T02:53:27;18.50;99.90
6098;DHT22;3077;50.922;6.584;2022-07-29T02:55:59;18.40;99.90
6098;DHT22;3077;50.922;6.584;2022-07-29T02:58:37;18.20;99.90
6098;DHT22;3077;50.922;6.584;2022-07-29T03:01:08;18.10;99.90
6098;DHT22;3077;50.922;6.584;2022-07-29T03:03:36;17.90;99.90
6098;DHT22;3077;50.922;6.584;2022-07-29T03:06:03;17.90;99.90
6098;DHT22;3077;50.922;6.584;2022-07-29T03:08:30;17.90;99.90
6098;DHT22;3077;50.922;6.584;2022-07-29T03:10:57;17.80;99.90
6098;DHT22;3077;50.922;6.584;2022-07-29T03:13:23;17.70;99.90
6098;DHT22;3077;50.922;6.584;2022-07-29T03:15:50;17.60;99.90
6098;DHT22;3077;50.922;6.584;2022-07-29T03:18:16;17.60;99.90
6098;DHT22;3077;50.922;6.584;2022-07-29T03:20:42;17.70;99.90
6098;DHT22;3077;50.922;6.584;2022-07-29T03:23:08;17.70;99.90
6098;DHT22;3077;50.922;6.584;2022-07-29T03:25:34;17.70;99.90
6098;DHT22;3077;50.922;6.584;2022-07-29T03:28:00;17.70;99.90
6098;DHT22;3077;50.922;6.584;2022-07-29T03:30:26;17.70;99.90
6098;DHT22;3077;50.922;6.584;2022-07-29T03:32:52;17.80;99.90
6098;DHT22;3077;50.922;6.584;2022-07-29T03:35:19;17.90;99.90
6098;DHT22;3077;50.922;6.584;2022-07-29T03:37:44;17.90;99.90
6098;DHT22;3077;50.922;6.584;2022-07-29T03:40:13;17.90;99.90
6098;DHT22;3077;50.922;6.584;2022-07-29T03:42:40;17.90;99.90
6098;DHT22;3077;50.922;6.584;2022-07-29T03:45:10;18.00;99.90
6098;DHT22;3077;50.922;6.584;2022-07-29T03:47:40;18.00;99.90
6098;DHT22;3077;50.922;6.584;2022-07-29T03:50:11;17.90;99.90
6098;DHT22;3077;50.922;6.584;2022-07-29T03:52:37;17.90;99.90
6098;DHT22;3077;50.922;6.584;2022-07-29T03:55:03;17.80;99.90
6098;DHT22;3077;50.922;6.584;2022-07-29T03:57:30;17.90;99.90
6098;DHT22;3077;50.922;6.584;2022-07-29T03:59:57;17.90;99.90
6098;DHT22;3077;50.922;6.584;2022-07-29T04:02:23;17.90;99.90
6098;DHT22;3077;50.922;6.584;2022-07-29T04:04:51;17.90;99.90
6098;DHT22;3077;50.922;6.584;2022-07-29T04:07:17;17.80;99.90
6098;DHT22;3077;50.922;6.584;2022-07-29T04:09:42;17.60;99.90
6098;DHT22;3077;50.922;6.584;2022-07-29T04:12:08;17.60;99.90
6098;DHT22;3077;50.922;6.584;2022-07-29T04:14:35;17.50;99.90
6098;DHT22;3077;50.922;6.584;2022-07-29T04:17:02;17.40;99.90
6098;DHT22;3077;50.922;6.584;2022-07-29T04:19:27;17.30;99.90
6098;DHT22;3077;50.922;6.584;2022-07-29T04:21:53;17.20;99.90
6098;DHT22;3077;50.922;6.584;2022-07-29T04:24:19;17.20;99.90
6098;DHT22;3077;50.922;6.584;2022-07-29T04:26:48;17.20;99.90
6098;DHT22;3077;50.922;6.584;2022-07-29T04:29:14;17.20;99.90
6098;DHT22;3077;50.922;6.584;2022-07-29T04:31:40;17.20;99.90
6098;DHT22;3077;50.922;6.584;2022-07-29T04:34:06;17.20;99.90
6098;DHT22;3077;50.922;6.584;2022-07-29T04:36:32;17.20;99.90
6098;DHT22;3077;50.922;6.584;2022-07-29T04:38:58;17.20;99.90
6098;DHT22;3077;50.922;6.584;2022-07-29T04:41:23;17.30;99.90
6098;DHT22;3077;50.922;6.584;2022-07-29T04:43:49;17.40;99.90
6098;DHT22;3077;50.922;6.584;2022-07-29T04:46:15;17.40;99.90
6098;DHT22;3077;50.922;6.584;2022-07-29T04:48:41;17.50;99.90
6098;DHT22;3077;50.922;6.584;2022-07-29T04:51:06;17.50;99.90
6098;DHT22;3077;50.922;6.584;2022-07-29T04:53:32;17.50;99.90
6098;DHT22;3077;50.922;6.584;2022-07-29T04:55:58;17.50;99.90
6098;DHT22;3077;50.922;6.584;2022-07-29T04:58:24;17.50;99.90
6098;DHT22;3077;50.922;6.584;2022-07-29T05:00:50;17.40;99.90
6098;DHT22;3077;50.922;6.584;2022-07-29T05:03:16;17.50;99.90
6098;DHT22;3077;50.922;6.584;2022-07-29T05:05:42;17.60;99.90
6098;DHT22;3077;50.922;6.584;2022-07-29T05:08:08;17.60;99.90
6098;DHT22;3077;50.922;6.584;2022-07-29T05:10:34;17.80;99.90
6098;DHT22;3077;50.922;6.584;2022-07-29T05:13:06;17.80;99.90
6098;DHT22;3077;50.922;6.584;2022-07-29T05:15:33;17.80;99.90
6098;DHT22;3077;50.922;6.584;2022-07-29T05:17:59;17.80;99.90
6098;DHT22;3077;50.922;6.584;2022-07-29T05:20:25;17.90;99.90
6098;DHT22;3077;50.922;6.584;2022-07-29T05:22:57;18.10;99.90
6098;DHT22;3077;50.922;6.584;2022-07-29T05:25:24;18.10;99.90
6098;DHT22;3077;50.922;6.584;2022-07-29T05:27:49;18.10;99.90
6098;DHT22;3077;50.922;6.584;2022-07-29T05:30:15;18.30;99.90
6098;DHT22;3077;50.922;6.584;2022-07-29T05:32:41;18.20;99.90
6098;DHT22;3077;50.922;6.584;2022-07-29T05:35:07;18.20;99.90
6098;DHT22;3077;50.922;6.584;2022-07-29T05:37:33;18.30;99.90
6098;DHT22;3077;50.922;6.584;2022-07-29T05:39:59;18.30;99.90
6098;DHT22;3077;50.922;6.584;2022-07-29T05:42:25;18.40;99.90
6098;DHT22;3077;50.922;6.584;2022-07-29T05:44:51;18.30;99.90
6098;DHT22;3077;50.922;6.584;2022-07-29T05:47:17;18.20;99.90
6098;DHT22;3077;50.922;6.584;2022-07-29T05:49:42;18.20;99.90
6098;DHT22;3077;50.922;6.584;2022-07-29T05:52:08;18.10;99.90
6098;DHT22;3077;50.922;6.584;2022-07-29T05:54:34;18.10;99.90
6098;DHT22;3077;50.922;6.584;2022-07-29T05:57:00;18.10;99.90
6098;DHT22;3077;50.922;6.584;2022-07-29T05:59:26;18.10;99.90
6098;DHT22;3077;50.922;6.584;2022-07-29T06:01:52;18.20;99.90
6098;DHT22;3077;50.922;6.584;2022-07-29T06:04:18;18.20;99.90
6098;DHT22;3077;50.922;6.584;2022-07-29T06:06:44;18.20;99.90
6098;DHT22;3077;50.922;6.584;2022-07-29T06:09:09;18.30;99.90
6098;DHT22;3077;50.922;6.584;2022-07-29T06:11:35;18.30;99.90
6098;DHT22;3077;50.922;6.584;2022-07-29T06:14:01;18.30;99.90
6098;DHT22;3077;50.922;6.584;2022-07-29T06:16:28;18.30;99.90
6098;DHT22;3077;50.922;6.584;2022-07-29T06:18:54;18.30;99.90
6098;DHT22;3077;50.922;6.584;2022-07-29T06:21:19;18.30;99.90
6098;DHT22;3077;50.922;6.584;2022-07-29T06:23:45;18.20;99.90
6098;DHT22;3077;50.922;6.584;2022-07-29T06:26:11;18.30;99.90
6098;DHT22;3077;50.922;6.584;2022-07-29T06:28:36;18.20;99.90
6098;DHT22;3077;50.922;6.584;2022-07-29T06:31:02;18.20;99.90
6098;DHT22;3077;50.922;6.584;2022-07-29T06:33:28;18.20;99.90
6098;DHT22;3077;50.922;6.584;2022-07-29T06:35:53;18.20;99.90
6098;DHT22;3077;50.922;6.584;2022-07-29T06:38:20;18.20;99.90
6098;DHT22;3077;50.922;6.584;2022-07-29T06:40:46;18.20;99.90
6098;DHT22;3077;50.922;6.584;2022-07-29T06:43:40;18.20;99.90
6098;DHT22;3077;50.922;6.584;2022-07-29T06:46:14;18.20;99.90
6098;DHT22;3077;50.922;6.584;2022-07-29T06:48:40;18.20;99.90
6098;DHT22;3077;50.922;6.584;2022-07-29T06:51:08;18.20;99.90
6098;DHT22;3077;50.922;6.584;2022-07-29T06:53:34;18.10;99.90
6098;DHT22;3077;50.922;6.584;2022-07-29T06:56:01;18.10;99.90
6098;DHT22;3077;50.922;6.584;2022-07-29T06:58:28;18.10;99.90
6098;DHT22;3077;50.922;6.584;2022-07-29T07:00:55;18.00;99.90
6098;DHT22;3077;50.922;6.584;2022-07-29T07:03:21;18.10;99.90
6098;DHT22;3077;50.922;6.584;2022-07-29T07:05:48;18.10;99.90
6098;DHT22;3077;50.922;6.584;2022-07-29T07:08:14;18.10;99.90
6098;DHT22;3077;50.922;6.584;2022-07-29T07:10:41;18.10;99.90
6098;DHT22;3077;50.922;6.584;2022-07-29T07:13:07;18.10;99.90
6098;DHT22;3077;50.922;6.584;2022-07-29T07:15:33;18.10;99.90
6098;DHT22;3077;50.922;6.584;2022-07-29T07:17:59;18.20;99.90
6098;DHT22;3077;50.922;6.584;2022-07-29T07:20:25;18.30;99.90
6098;DHT22;3077;50.922;6.584;2022-07-29T07:22:50;18.40;99.90
6098;DHT22;3077;50.922;6.584;2022-07-29T07:25:16;18.40;99.90
6098;DHT22;3077;50.922;6.584;2022-07-29T07:27:45;18.20;99.90
6098;DHT22;3077;50.922;6.584;2022-07-29T07:30:11;18.20;99.90
6098;DHT22;3077;50.922;6.584;2022-07-29T07:32:37;18.30;99.90
6098;DHT22;3077;50.922;6.584;2022-07-29T07:35:05;18.40;99.90
6098;DHT22;3077;50.922;6.584;2022-07-29T07:37:31;18.30;99.90
6098;DHT22;3077;50.922;6.584;2022-07-29T07:39:56;18.50;99.90
6098;DHT22;3077;50.922;6.584;2022-07-29T07:42:23;18.60;99.90
6098;DHT22;3077;50.922;6.584;2022-07-29T07:44:49;18.60;99.90
6098;DHT22;3077;50.922;6.584;2022-07-29T07:47:15;18.70;99.90
6098;DHT22;3077;50.922;6.584;2022-07-29T07:49:48;18.70;99.90
6098;DHT22;3077;50.922;6.584;2022-07-29T07:52:15;18.70;99.90
6098;DHT22;3077;50.922;6.584;2022-07-29T07:54:41;18.90;99.90
6098;DHT22;3077;50.922;6.584;2022-07-29T07:57:08;19.10;99.90
6098;DHT22;3077;50.922;6.584;2022-07-29T07:59:34;19.20;99.90
6098;DHT22;3077;50.922;6.584;2022-07-29T08:02:00;19.30;99.90
6098;DHT22;3077;50.922;6.584;2022-07-29T08:04:26;19.40;99.90
6098;DHT22;3077;50.922;6.584;2022-07-29T08:06:52;19.50;99.90
6098;DHT22;3077;50.922;6.584;2022-07-29T08:09:20;19.60;99.90
6098;DHT22;3077;50.922;6.584;2022-07-29T08:11:45;19.70;99.90
6098;DHT22;3077;50.922;6.584;2022-07-29T08:14:11;19.70;99.90
6098;DHT22;3077;50.922;6.584;2022-07-29T08:16:37;19.80;99.90
6098;DHT22;3077;50.922;6.584;2022-07-29T08:19:02;19.70;99.90
6098;DHT22;3077;50.922;6.584;2022-07-29T08:21:28;19.80;99.90
6098;DHT22;3077;50.922;6.584;2022-07-29T08:23:53;19.90;99.90
6098;DHT22;3077;50.922;6.584;2022-07-29T08:26:43;19.90;99.90
6098;DHT22;3077;50.922;6.584;2022-07-29T08:29:09;19.90;99.90
6098;DHT22;3077;50.922;6.584;2022-07-29T08:31:36;19.80;99.90
6098;DHT22;3077;50.922;6.584;2022-07-29T08:34:03;19.60;99.90
6098;DHT22;3077;50.922;6.584;2022-07-29T08:36:29;19.60;99.90
6098;DHT22;3077;50.922;6.584;2022-07-29T08:38:55;19.50;99.90
6098;DHT22;3077;50.922;6.584;2022-07-29T08:41:21;19.60;99.90
6098;DHT22;3077;50.922;6.584;2022-07-29T08:43:48;19.50;99.90
6098;DHT22;3077;50.922;6.584;2022-07-29T08:46:14;19.50;99.90
6098;DHT22;3077;50.922;6.584;2022-07-29T08:48:41;19.40;99.90
6098;DHT22;3077;50.922;6.584;2022-07-29T08:51:07;19.50;99.90
6098;DHT22;3077;50.922;6.584;2022-07-29T08:53:33;19.60;99.90
6098;DHT22;3077;50.922;6.584;2022-07-29T08:55:59;19.80;99.90
6098;DHT22;3077;50.922;6.584;2022-07-29T08:58:27;19.90;99.90
6098;DHT22;3077;50.922;6.584;2022-07-29T09:00:56;19.90;99.90
6098;DHT22;3077;50.922;6.584;2022-07-29T09:03:31;20.00;99.90
6098;DHT22;3077;50.922;6.584;2022-07-29T09:05:58;20.10;99.90
6098;DHT22;3077;50.922;6.584;2022-07-29T09:08:24;20.20;99.90
6098;DHT22;3077;50.922;6.584;2022-07-29T09:10:50;20.40;99.90
6098;DHT22;3077;50.922;6.584;2022-07-29T09:13:17;20.70;99.90
6098;DHT22;3077;50.922;6.584;2022-07-29T09:15:43;20.90;99.90
6098;DHT22;3077;50.922;6.584;2022-07-29T09:18:09;21.00;99.90
6098;DHT22;3077;50.922;6.584;2022-07-29T09:20:34;21.00;99.90
6098;DHT22;3077;50.922;6.584;2022-07-29T09:23:19;21.00;99.90
6098;DHT22;3077;50.922;6.584;2022-07-29T09:25:45;21.00;99.90
6098;DHT22;3077;50.922;6.584;2022-07-29T09:28:14;21.10;99.90
6098;DHT22;3077;50.922;6.584;2022-07-29T09:30:55;21.30;99.90
6098;DHT22;3077;50.922;6.584;2022-07-29T09:33:22;21.30;99.90
6098;DHT22;3077;50.922;6.584;2022-07-29T09:36:06;21.30;99.90
6098;DHT22;3077;50.922;6.584;2022-07-29T09:38:32;21.30;99.90
6098;DHT22;3077;50.922;6.584;2022-07-29T09:40:59;21.30;99.90
6098;DHT22;3077;50.922;6.584;2022-07-29T09:43:26;21.30;99.90
6098;DHT22;3077;50.922;6.584;2022-07-29T09:45:52;21.20;99.90
6098;DHT22;3077;50.922;6.584;2022-07-29T09:48:20;21.20;99.90
6098;DHT22;3077;50.922;6.584;2022-07-29T09:50:48;21.30;99.90
6098;DHT22;3077;50.922;6.584;2022-07-29T09:53:33;21.40;99.90
6098;DHT22;3077;50.922;6.584;2022-07-29T09:55:59;21.50;99.90
6098;DHT22;3077;50.922;6.584;2022-07-29T09:58:25;21.50;99.90
6098;DHT22;3077;50.922;6.584;2022-07-29T10:00:52;21.60;99.90
6098;DHT22;3077;50.922;6.584;2022-07-29T10:03:18;21.80;99.90
6098;DHT22;3077;50.922;6.584;2022-07-29T10:05:45;21.80;99.90
6098;DHT22;3077;50.922;6.584;2022-07-29T10:08:12;21.80;99.90
6098;DHT22;3077;50.922;6.584;2022-07-29T10:10:39;21.80;99.90
6098;DHT22;3077;50.922;6.584;2022-07-29T10:13:13;21.90;99.90
6098;DHT22;3077;50.922;6.584;2022-07-29T10:15:44;21.90;99.90
6098;DHT22;3077;50.922;6.584;2022-07-29T10:18:14;22.10;99.90
6098;DHT22;3077;50.922;6.584;2022-07-29T10:20:42;22.10;99.90
6098;DHT22;3077;50.922;6.584;2022-07-29T10:23:09;22.30;99.90
6098;DHT22;3077;50.922;6.584;2022-07-29T10:25:34;22.30;99.90
6098;DHT22;3077;50.922;6.584;2022-07-29T10:28:00;22.30;99.90
6098;DHT22;3077;50.922;6.584;2022-07-29T10:30:26;22.40;99.90
6098;DHT22;3077;50.922;6.584;2022-07-29T10:36:21;22.90;99.90
6098;DHT22;3077;50.922;6.584;2022-07-29T10:41:58;23.20;99.90
6098;DHT22;3077;50.922;6.584;2022-07-29T10:44:26;22.90;99.90
6098;DHT22;3077;50.922;6.584;2022-07-29T10:46:52;22.80;99.90
6098;DHT22;3077;50.922;6.584;2022-07-29T10:49:24;22.90;99.90
6098;DHT22;3077;50.922;6.584;2022-07-29T10:52:21;22.80;99.90
6098;DHT22;3077;50.922;6.584;2022-07-29T10:54:50;23.00;99.90
6098;DHT22;3077;50.922;6.584;2022-07-29T10:57:30;23.30;99.90
6098;DHT22;3077;50.922;6.584;2022-07-29T11:05:06;24.30;99.90
6098;DHT22;3077;50.922;6.584;2022-07-29T11:07:34;24.50;99.90
6098;DHT22;3077;50.922;6.584;2022-07-29T11:15:17;25.30;99.90
6098;DHT22;3077;50.922;6.584;2022-07-29T11:23:16;24.90;99.90
6098;DHT22;3077;50.922;6.584;2022-07-29T11:25:42;25.20;99.90
6098;DHT22;3077;50.922;6.584;2022-07-29T11:28:13;25.60;99.90
6098;DHT22;3077;50.922;6.584;2022-07-29T11:30:51;25.90;99.90
6098;DHT22;3077;50.922;6.584;2022-07-29T11:33:33;26.30;98.10
6098;DHT22;3077;50.922;6.584;2022-07-29T11:38:34;26.90;95.20
6098;DHT22;3077;50.922;6.584;2022-07-29T11:41:23;26.80;93.60
6098;DHT22;3077;50.922;6.584;2022-07-29T11:43:54;26.50;92.10
6098;DHT22;3077;50.922;6.584;2022-07-29T11:46:49;26.00;92.10
6098;DHT22;3077;50.922;6.584;2022-07-29T11:49:21;26.10;94.50
6098;DHT22;3077;50.922;6.584;2022-07-29T11:51:55;26.50;92.90
6098;DHT22;3077;50.922;6.584;2022-07-29T11:54:34;26.50;89.60
6098;DHT22;3077;50.922;6.584;2022-07-29T11:57:00;26.20;90.00
6098;DHT22;3077;50.922;6.584;2022-07-29T11:59:26;26.00;90.30
6098;DHT22;3077;50.922;6.584;2022-07-29T12:01:59;25.90;91.90
6098;DHT22;3077;50.922;6.584;2022-07-29T12:04:25;25.90;91.10
6098;DHT22;3077;50.922;6.584;2022-07-29T12:06:53;26.40;87.90
6098;DHT22;3077;50.922;6.584;2022-07-29T12:09:20;26.80;86.90
6098;DHT22;3077;50.922;6.584;2022-07-29T12:11:46;27.30;88.20
6098;DHT22;3077;50.922;6.584;2022-07-29T12:14:28;27.60;86.60
6098;DHT22;3077;50.922;6.584;2022-07-29T12:16:54;27.50;85.20
6098;DHT22;3077;50.922;6.584;2022-07-29T12:19:20;27.80;81.40
6098;DHT22;3077;50.922;6.584;2022-07-29T12:21:51;27.90;81.10
6098;DHT22;3077;50.922;6.584;2022-07-29T12:24:18;28.30;77.20
6098;DHT22;3077;50.922;6.584;2022-07-29T12:26:51;28.10;72.10
6098;DHT22;3077;50.922;6.584;2022-07-29T12:29:17;27.80;73.10
6098;DHT22;3077;50.922;6.584;2022-07-29T12:31:43;27.60;72.40
6098;DHT22;3077;50.922;6.584;2022-07-29T12:34:11;27.60;70.20
6098;DHT22;3077;50.922;6.584;2022-07-29T12:36:37;28.20;69.60
6098;DHT22;3077;50.922;6.584;2022-07-29T12:39:03;28.50;62.50
6098;DHT22;3077;50.922;6.584;2022-07-29T12:41:30;28.50;62.40
6098;DHT22;3077;50.922;6.584;2022-07-29T12:43:56;28.50;63.20
6098;DHT22;3077;50.922;6.584;2022-07-29T12:46:21;29.50;61.00
6098;DHT22;3077;50.922;6.584;2022-07-29T12:48:51;30.00;54.80
6098;DHT22;3077;50.922;6.584;2022-07-29T12:51:29;30.70;52.50
6098;DHT22;3077;50.922;6.584;2022-07-29T12:54:12;30.80;48.70
6098;DHT22;3077;50.922;6.584;2022-07-29T12:56:39;30.70;47.20
6098;DHT22;3077;50.922;6.584;2022-07-29T12:59:16;30.20;47.10
6098;DHT22;3077;50.922;6.584;2022-07-29T13:01:43;30.20;47.90
6098;DHT22;3077;50.922;6.584;2022-07-29T13:04:09;30.60;45.90
6098;DHT22;3077;50.922;6.584;2022-07-29T13:06:43;30.80;47.70
6098;DHT22;3077;50.922;6.584;2022-07-29T13:09:20;31.10;42.60
6098;DHT22;3077;50.922;6.584;2022-07-29T13:11:51;30.90;42.90
6098;DHT22;3077;50.922;6.584;2022-07-29T13:14:37;30.70;41.40
6098;DHT22;3077;50.922;6.584;2022-07-29T13:17:22;30.50;41.80
6098;DHT22;3077;50.922;6.584;2022-07-29T13:19:50;30.30;42.00
6098;DHT22;3077;50.922;6.584;2022-07-29T13:22:19;30.40;42.10
6098;DHT22;3077;50.922;6.584;2022-07-29T13:27:20;30.20;41.30
6098;DHT22;3077;50.922;6.584;2022-07-29T13:29:46;30.50;40.60
6098;DHT22;3077;50.922;6.584;2022-07-29T13:32:13;30.80;39.30
6098;DHT22;3077;50.922;6.584;2022-07-29T13:34:39;30.80;37.90
6098;DHT22;3077;50.922;6.584;2022-07-29T13:37:04;30.50;37.40
6098;DHT22;3077;50.922;6.584;2022-07-29T13:39:30;30.20;37.80
6098;DHT22;3077;50.922;6.584;2022-07-29T13:41:56;29.70;38.40
6098;DHT22;3077;50.922;6.584;2022-07-29T13:44:21;29.80;38.70
6098;DHT22;3077;50.922;6.584;2022-07-29T13:46:47;30.00;38.90
6098;DHT22;3077;50.922;6.584;2022-07-29T13:49:13;30.50;39.10
6098;DHT22;3077;50.922;6.584;2022-07-29T13:51:38;30.60;38.60
6098;DHT22;3077;50.922;6.584;2022-07-29T13:54:04;31.30;38.10
6098;DHT22;3077;50.922;6.584;2022-07-29T13:56:30;31.80;34.60
6098;DHT22;3077;50.922;6.584;2022-07-29T13:58:56;32.10;33.80
6098;DHT22;3077;50.922;6.584;2022-07-29T14:01:22;32.40;31.40
6098;DHT22;3077;50.922;6.584;2022-07-29T14:03:48;33.10;30.20
6098;DHT22;3077;50.922;6.584;2022-07-29T14:06:14;33.90;28.60
6098;DHT22;3077;50.922;6.584;2022-07-29T14:08:39;33.60;25.80
6098;DHT22;3077;50.922;6.584;2022-07-29T14:11:05;33.40;27.00
6098;DHT22;3077;50.922;6.584;2022-07-29T14:13:31;33.40;26.00
6098;DHT22;3077;50.922;6.584;2022-07-29T14:15:57;33.20;27.00
6098;DHT22;3077;50.922;6.584;2022-07-29T14:18:22;33.00;26.80
6098;DHT22;3077;50.922;6.584;2022-07-29T14:20:48;32.50;27.20
6098;DHT22;3077;50.922;6.584;2022-07-29T14:23:14;32.20;26.00
6098;DHT22;3077;50.922;6.584;2022-07-29T14:25:40;32.30;25.30
6098;DHT22;3077;50.922;6.584;2022-07-29T14:28:06;32.00;25.50
6098;DHT22;3077;50.922;6.584;2022-07-29T14:30:32;31.30;27.30
6098;DHT22;3077;50.922;6.584;2022-07-29T14:32:57;31.10;27.40
6098;DHT22;3077;50.922;6.584;2022-07-29T14:35:23;31.20;26.60
6098;DHT22;3077;50.922;6.584;2022-07-29T14:37:49;31.30;27.40
6098;DHT22;3077;50.922;6.584;2022-07-29T14:40:14;31.50;26.60
6098;DHT22;3077;50.922;6.584;2022-07-29T14:42:40;31.90;25.90
6098;DHT22;3077;50.922;6.584;2022-07-29T14:45:07;32.20;24.40
6098;DHT22;3077;50.922;6.584;2022-07-29T14:47:33;32.70;23.90
6098;DHT22;3077;50.922;6.584;2022-07-29T14:49:59;33.40;22.10
6098;DHT22;3077;50.922;6.584;2022-07-29T14:52:25;33.00;21.80
6098;DHT22;3077;50.922;6.584;2022-07-29T14:54:50;32.70;22.40
6098;DHT22;3077;50.922;6.584;2022-07-29T14:57:16;32.50;22.70
6098;DHT22;3077;50.922;6.584;2022-07-29T14:59:42;32.60;22.50
6098;DHT22;3077;50.922;6.584;2022-07-29T15:02:08;32.90;21.80
6098;DHT22;3077;50.922;6.584;2022-07-29T15:04:33;32.60;21.90
6098;DHT22;3077;50.922;6.584;2022-07-29T15:06:59;32.90;21.70
6098;DHT22;3077;50.922;6.584;2022-07-29T15:09:25;33.20;20.60
6098;DHT22;3077;50.922;6.584;2022-07-29T15:11:51;33.00;20.90
6098;DHT22;3077;50.922;6.584;2022-07-29T15:14:16;33.00;21.10
6098;DHT22;3077;50.922;6.584;2022-07-29T15:16:42;33.10;20.50
6098;DHT22;3077;50.922;6.584;2022-07-29T15:19:08;32.90;20.60
6098;DHT22;3077;50.922;6.584;2022-07-29T15:21:34;32.80;19.50
6098;DHT22;3077;50.922;6.584;2022-07-29T15:24:00;32.60;20.40
6098;DHT22;3077;50.922;6.584;2022-07-29T15:26:26;33.00;18.90
6098;DHT22;3077;50.922;6.584;2022-07-29T15:28:51;32.20;18.80
6098;DHT22;3077;50.922;6.584;2022-07-29T15:31:17;31.50;19.60
6098;DHT22;3077;50.922;6.584;2022-07-29T15:33:44;31.20;20.20
6098;DHT22;3077;50.922;6.584;2022-07-29T15:36:09;30.50;20.90
6098;DHT22;3077;50.922;6.584;2022-07-29T15:38:37;29.90;21.90
6098;DHT22;3077;50.922;6.584;2022-07-29T15:41:03;29.70;22.50
6098;DHT22;3077;50.922;6.584;2022-07-29T15:43:29;29.80;22.60
6098;DHT22;3077;50.922;6.584;2022-07-29T15:45:54;30.40;21.60
6098;DHT22;3077;50.922;6.584;2022-07-29T15:48:39;31.00;21.40
6098;DHT22;3077;50.922;6.584;2022-07-29T15:51:04;31.50;21.00
6098;DHT22;3077;50.922;6.584;2022-07-29T15:53:30;31.90;19.60
6098;DHT22;3077;50.922;6.584;2022-07-29T15:55:56;31.60;19.90
6098;DHT22;3077;50.922;6.584;2022-07-29T15:58:21;31.40;20.60
6098;DHT22;3077;50.922;6.584;2022-07-29T16:00:47;31.70;20.30
6098;DHT22;3077;50.922;6.584;2022-07-29T16:03:13;32.10;20.00
6098;DHT22;3077;50.922;6.584;2022-07-29T16:05:39;32.90;18.70
6098;DHT22;3077;50.922;6.584;2022-07-29T16:08:05;33.10;18.70
6098;DHT22;3077;50.922;6.584;2022-07-29T16:10:30;32.60;18.30
6098;DHT22;3077;50.922;6.584;2022-07-29T16:12:56;32.40;19.80
6098;DHT22;3077;50.922;6.584;2022-07-29T16:15:22;32.00;19.40
6098;DHT22;3077;50.922;6.584;2022-07-29T16:17:47;31.70;20.70
6098;DHT22;3077;50.922;6.584;2022-07-29T16:20:15;31.80;20.30
6098;DHT22;3077;50.922;6.584;2022-07-29T16:22:40;31.80;20.40
6098;DHT22;3077;50.922;6.584;2022-07-29T16:25:06;31.80;20.20
6098;DHT22;3077;50.922;6.584;2022-07-29T16:27:33;31.70;20.40
6098;DHT22;3077;50.922;6.584;2022-07-29T16:29:59;31.40;21.10
6098;DHT22;3077;50.922;6.584;2022-07-29T16:32:25;31.50;21.60
6098;DHT22;3077;50.922;6.584;2022-07-29T16:34:52;31.50;21.30
6098;DHT22;3077;50.922;6.584;2022-07-29T16:37:17;31.30;21.80
6098;DHT22;3077;50.922;6.584;2022-07-29T16:39:43;31.20;22.60
6098;DHT22;3077;50.922;6.584;2022-07-29T16:42:08;31.20;22.90